sensor_id;sensor_type;location;lat;lon;timestamp;pressure;altitude;pressure_sealevel;temperature;humidity
6427;BME280;3246;42.664;23.308;2022-09-13T00:01:50;120715.88;;;-142.62;72.06
6427;BME280;3246;42.664;23.308;2022-09-13T00:04:17;120715.88;;;-142.62;72.12
6427;BME280;3246;42.664;23.308;2022-09-13T00:06:44;120715.88;;;-142.62;71.33
6427;BME280;3246;42.664;23.308;2022-09-13T00:09:12;120715.88;;;-142.62;71.37
6427;BME280;3246;42.664;23.308;2022-09-13T00:11:39;120715.88;;;-142.62;71.21
6427;BME280;3246;42.664;23.308;2022-09-13T00:14:06;120715.88;;;-142.62;71.10
6427;BME280;3246;42.664;23.308;2022-09-13T00:16:32;120715.88;;;-142.62;71.21
6427;BME280;3246;42.664;23.308;2022-09-13T00:18:59;120715.88;;;-142.62;70.86
6427;BME280;3246;42.664;23.308;2022-09-13T00:21:26;120715.88;;;-142.62;70.98
6427;BME280;3246;42.664;23.308;2022-09-13T00:23:54;120715.88;;;-142.62;71.26
6427;BME280;3246;42.664;23.308;2022-09-13T00:26:24;120715.88;;;-142.62;70.94
6427;BME280;3246;42.664;23.308;2022-09-13T00:28:53;120715.88;;;-142.62;71.04
6427;BME280;3246;42.664;23.308;2022-09-13T00:31:21;120715.88;;;-142.62;71.20
6427;BME280;3246;42.664;23.308;2022-09-13T00:33:49;120715.88;;;-142.62;71.35
6427;BME280;3246;42.664;23.308;2022-09-13T00:36:16;120715.88;;;-142.62;71.03
6427;BME280;3246;42.664;23.308;2022-09-13T00:38:43;120715.88;;;-142.62;71.08
6427;BME280;3246;42.664;23.308;2022-09-13T00:41:11;120715.88;;;-142.62;70.96
6427;BME280;3246;42.664;23.308;2022-09-13T00:43:48;120715.88;;;-142.62;71.08
6427;BME280;3246;42.664;23.308;2022-09-13T00:46:31;120715.88;;;-142.62;70.90
6427;BME280;3246;42.664;23.308;2022-09-13T00:49:03;120715.88;;;-142.62;70.83
6427;BME280;3246;42.664;23.308;2022-09-13T00:51:33;120715.88;;;-142.62;70.77
6427;BME280;3246;42.664;23.308;2022-09-13T00:54:00;120715.88;;;-142.62;70.51
6427;BME280;3246;42.664;23.308;2022-09-13T00:56:31;120715.88;;;-142.62;69.90
6427;BME280;3246;42.664;23.308;2022-09-13T00:59:05;120715.88;;;-142.62;70.35
6427;BME280;3246;42.664;23.308;2022-09-13T01:01:38;120715.88;;;-142.62;70.17
6427;BME280;3246;42.664;23.308;2022-09-13T01:04:06;120715.88;;;-142.62;70.36
6427;BME280;3246;42.664;23.308;2022-09-13T01:06:35;120715.88;;;-142.62;70.30
6427;BME280;3246;42.664;23.308;2022-09-13T01:09:04;120715.88;;;-142.62;70.03
6427;BME280;3246;42.664;23.308;2022-09-13T01:11:39;120715.88;;;-142.62;69.96
6427;BME280;3246;42.664;23.308;2022-09-13T01:14:11;120715.88;;;-142.62;69.74
6427;BME280;3246;42.664;23.308;2022-09-13T01:16:39;120715.88;;;-142.62;69.93
6427;BME280;3246;42.664;23.308;2022-09-13T01:19:05;120715.88;;;-142.62;70.05
6427;BME280;3246;42.664;23.308;2022-09-13T01:21:57;120715.88;;;-142.62;70.06
6427;BME280;3246;42.664;23.308;2022-09-13T01:25:02;120715.88;;;-142.62;69.88
6427;BME280;3246;42.664;23.308;2022-09-13T01:27:41;120715.88;;;-142.62;70.15
6427;BME280;3246;42.664;23.308;2022-09-13T01:30:21;120715.88;;;-142.62;69.93
6427;BME280;3246;42.664;23.308;2022-09-13T01:33:08;120715.88;;;-142.62;70.19
6427;BME280;3246;42.664;23.308;2022-09-13T01:38:44;120715.88;;;-142.62;70.14
6427;BME280;3246;42.664;23.308;2022-09-13T01:41:24;120715.88;;;-142.62;70.41
6427;BME280;3246;42.664;23.308;2022-09-13T01:43:57;120715.88;;;-142.62;70.33
6427;BME280;3246;42.664;23.308;2022-09-13T01:46:33;120715.88;;;-142.62;70.62
6427;BME280;3246;42.664;23.308;2022-09-13T01:49:13;120715.88;;;-142.62;71.07
6427;BME280;3246;42.664;23.308;2022-09-13T01:51:43;120715.88;;;-142.62;71.31
6427;BME280;3246;42.664;23.308;2022-09-13T01:54:16;120715.88;;;-142.62;71.71
6427;BME280;3246;42.664;23.308;2022-09-13T01:56:52;120715.88;;;-142.62;71.79
6427;BME280;3246;42.664;23.308;2022-09-13T01:59:24;120715.88;;;-142.62;71.75
6427;BME280;3246;42.664;23.308;2022-09-13T02:01:59;120715.88;;;-142.62;71.76
6427;BME280;3246;42.664;23.308;2022-09-13T02:04:34;120715.88;;;-142.62;71.86
6427;BME280;3246;42.664;23.308;2022-09-13T02:07:06;120715.88;;;-142.62;72.03
6427;BME280;3246;42.664;23.308;2022-09-13T02:09:40;120715.88;;;-142.62;72.23
6427;BME280;3246;42.664;23.308;2022-09-13T02:12:13;120715.88;;;-142.62;72.42
6427;BME280;3246;42.664;23.308;2022-09-13T02:14:43;120715.88;;;-142.62;72.70
6427;BME280;3246;42.664;23.308;2022-09-13T02:17:15;120715.88;;;-142.62;72.28
6427;BME280;3246;42.664;23.308;2022-09-13T02:19:49;120715.88;;;-142.62;72.17
6427;BME280;3246;42.664;23.308;2022-09-13T02:22:21;120715.88;;;-142.62;71.98
6427;BME280;3246;42.664;23.308;2022-09-13T02:24:55;120715.88;;;-142.62;72.01
6427;BME280;3246;42.664;23.308;2022-09-13T02:27:25;120715.88;;;-142.62;72.05
6427;BME280;3246;42.664;23.308;2022-09-13T02:29:59;120715.88;;;-142.62;71.33
6427;BME280;3246;42.664;23.308;2022-09-13T02:32:32;120715.88;;;-142.62;71.81
6427;BME280;3246;42.664;23.308;2022-09-13T02:35:03;120715.88;;;-142.62;71.78
6427;BME280;3246;42.664;23.308;2022-09-13T02:37:33;120715.88;;;-142.62;71.53
6427;BME280;3246;42.664;23.308;2022-09-13T02:40:03;120715.88;;;-142.62;71.74
6427;BME280;3246;42.664;23.308;2022-09-13T02:42:36;120715.88;;;-142.62;72.09
6427;BME280;3246;42.664;23.308;2022-09-13T02:45:07;120715.88;;;-142.62;72.36
6427;BME280;3246;42.664;23.308;2022-09-13T02:47:42;120715.88;;;-142.62;72.47
6427;BME280;3246;42.664;23.308;2022-09-13T02:50:21;120715.88;;;-142.62;72.45
6427;BME280;3246;42.664;23.308;2022-09-13T02:52:59;120715.88;;;-142.62;72.75
6427;BME280;3246;42.664;23.308;2022-09-13T02:55:34;120715.88;;;-142.62;72.54
6427;BME280;3246;42.664;23.308;2022-09-13T02:58:08;120715.88;;;-142.62;72.72
6427;BME280;3246;42.664;23.308;2022-09-13T03:00:37;120715.88;;;-142.62;72.60
6427;BME280;3246;42.664;23.308;2022-09-13T03:03:09;120715.88;;;-142.62;72.58
6427;BME280;3246;42.664;23.308;2022-09-13T03:05:37;120715.88;;;-142.62;72.83
6427;BME280;3246;42.664;23.308;2022-09-13T03:08:05;120715.88;;;-142.62;72.88
6427;BME280;3246;42.664;23.308;2022-09-13T03:10:53;120715.88;;;-142.62;72.35
6427;BME280;3246;42.664;23.308;2022-09-13T03:16:31;120715.88;;;-142.62;72.56
6427;BME280;3246;42.664;23.308;2022-09-13T03:19:19;120715.88;;;-142.62;72.80
6427;BME280;3246;42.664;23.308;2022-09-13T03:21:59;120715.88;;;-142.62;73.26
6427;BME280;3246;42.664;23.308;2022-09-13T03:24:38;120715.88;;;-142.62;73.83
6427;BME280;3246;42.664;23.308;2022-09-13T03:27:15;120715.88;;;-142.62;73.62
6427;BME280;3246;42.664;23.308;2022-09-13T03:29:51;120715.88;;;-142.62;73.59
6427;BME280;3246;42.664;23.308;2022-09-13T03:32:25;120715.88;;;-142.62;73.73
6427;BME280;3246;42.664;23.308;2022-09-13T03:35:02;120715.88;;;-142.62;73.91
6427;BME280;3246;42.664;23.308;2022-09-13T03:37:33;120715.88;;;-142.62;73.74
6427;BME280;3246;42.664;23.308;2022-09-13T03:40:07;120715.88;;;-142.62;73.44
6427;BME280;3246;42.664;23.308;2022-09-13T03:42:40;120715.88;;;-142.62;73.42
6427;BME280;3246;42.664;23.308;2022-09-13T03:45:10;120715.88;;;-142.62;73.29
6427;BME280;3246;42.664;23.308;2022-09-13T03:47:39;120715.88;;;-142.62;73.48
6427;BME280;3246;42.664;23.308;2022-09-13T03:50:15;120715.88;;;-142.62;73.74
6427;BME280;3246;42.664;23.308;2022-09-13T03:52:44;120715.88;;;-142.62;73.29
6427;BME280;3246;42.664;23.308;2022-09-13T03:55:11;120715.88;;;-142.62;73.10
6427;BME280;3246;42.664;23.308;2022-09-13T03:57:38;120715.88;;;-142.62;73.22
6427;BME280;3246;42.664;23.308;2022-09-13T04:00:06;120715.88;;;-142.62;72.70
6427;BME280;3246;42.664;23.308;2022-09-13T04:02:33;120715.88;;;-142.62;72.99
6427;BME280;3246;42.664;23.308;2022-09-13T04:05:01;120715.88;;;-142.62;72.76
6427;BME280;3246;42.664;23.308;2022-09-13T04:07:29;120715.88;;;-142.62;72.53
6427;BME280;3246;42.664;23.308;2022-09-13T04:09:56;120715.88;;;-142.62;72.41
6427;BME280;3246;42.664;23.308;2022-09-13T04:12:22;120715.88;;;-142.62;72.41
6427;BME280;3246;42.664;23.308;2022-09-13T04:14:49;120715.88;;;-142.62;72.37
6427;BME280;3246;42.664;23.308;2022-09-13T04:17:16;120715.88;;;-142.62;72.43
6427;BME280;3246;42.664;23.308;2022-09-13T04:19:43;120715.88;;;-142.62;72.54
6427;BME280;3246;42.664;23.308;2022-09-13T04:22:11;120715.88;;;-142.62;72.59
6427;BME280;3246;42.664;23.308;2022-09-13T04:24:40;120715.88;;;-142.62;72.81
6427;BME280;3246;42.664;23.308;2022-09-13T04:27:08;120715.88;;;-142.62;72.71
6427;BME280;3246;42.664;23.308;2022-09-13T04:29:35;120715.88;;;-142.62;72.20
6427;BME280;3246;42.664;23.308;2022-09-13T04:32:02;120715.88;;;-142.62;72.17
6427;BME280;3246;42.664;23.308;2022-09-13T04:34:29;120715.88;;;-142.62;72.46
6427;BME280;3246;42.664;23.308;2022-09-13T04:36:56;120715.88;;;-142.62;72.41
6427;BME280;3246;42.664;23.308;2022-09-13T04:39:22;120715.88;;;-142.62;72.51
6427;BME280;3246;42.664;23.308;2022-09-13T04:41:51;120715.88;;;-142.62;72.64
6427;BME280;3246;42.664;23.308;2022-09-13T04:44:20;120715.88;;;-142.62;72.86
6427;BME280;3246;42.664;23.308;2022-09-13T04:46:48;120715.88;;;-142.62;72.81
6427;BME280;3246;42.664;23.308;2022-09-13T04:49:16;120715.88;;;-142.62;72.37
6427;BME280;3246;42.664;23.308;2022-09-13T04:51:44;120715.88;;;-142.62;71.93
6427;BME280;3246;42.664;23.308;2022-09-13T04:54:11;120715.88;;;-142.62;71.87
6427;BME280;3246;42.664;23.308;2022-09-13T04:56:39;120715.88;;;-142.62;72.06
6427;BME280;3246;42.664;23.308;2022-09-13T04:59:07;120715.88;;;-142.62;72.38
6427;BME280;3246;42.664;23.308;2022-09-13T05:01:35;120715.88;;;-142.62;72.73
6427;BME280;3246;42.664;23.308;2022-09-13T05:04:02;120715.88;;;-142.62;72.67
6427;BME280;3246;42.664;23.308;2022-09-13T05:06:29;120715.88;;;-142.62;72.80
6427;BME280;3246;42.664;23.308;2022-09-13T05:08:56;120715.88;;;-142.62;72.40
6427;BME280;3246;42.664;23.308;2022-09-13T05:11:23;120715.88;;;-142.62;72.34
6427;BME280;3246;42.664;23.308;2022-09-13T05:13:51;120715.88;;;-142.62;72.61
6427;BME280;3246;42.664;23.308;2022-09-13T05:16:21;120715.88;;;-142.62;72.73
6427;BME280;3246;42.664;23.308;2022-09-13T05:18:48;120715.88;;;-142.62;72.92
6427;BME280;3246;42.664;23.308;2022-09-13T05:21:16;120715.88;;;-142.62;71.57
6427;BME280;3246;42.664;23.308;2022-09-13T05:23:43;120715.88;;;-142.62;71.25
6427;BME280;3246;42.664;23.308;2022-09-13T05:26:10;120715.88;;;-142.62;70.65
6427;BME280;3246;42.664;23.308;2022-09-13T05:28:36;120715.88;;;-142.62;70.30
6427;BME280;3246;42.664;23.308;2022-09-13T05:31:05;120715.88;;;-142.62;69.91
6427;BME280;3246;42.664;23.308;2022-09-13T05:33:35;120715.88;;;-142.62;70.01
6427;BME280;3246;42.664;23.308;2022-09-13T05:36:02;120715.88;;;-142.62;69.20
6427;BME280;3246;42.664;23.308;2022-09-13T05:38:29;120715.88;;;-142.62;69.66
6427;BME280;3246;42.664;23.308;2022-09-13T05:40:57;120715.88;;;-142.62;69.68
6427;BME280;3246;42.664;23.308;2022-09-13T05:43:25;120715.88;;;-142.62;69.42
6427;BME280;3246;42.664;23.308;2022-09-13T05:45:59;120715.88;;;-142.62;69.17
6427;BME280;3246;42.664;23.308;2022-09-13T05:48:27;120715.88;;;-142.62;68.89
6427;BME280;3246;42.664;23.308;2022-09-13T05:50:55;120715.88;;;-142.62;68.80
6427;BME280;3246;42.664;23.308;2022-09-13T05:53:22;120715.88;;;-142.62;68.39
6427;BME280;3246;42.664;23.308;2022-09-13T05:55:48;120715.88;;;-142.62;68.48
6427;BME280;3246;42.664;23.308;2022-09-13T05:58:15;120715.88;;;-142.62;69.11
6427;BME280;3246;42.664;23.308;2022-09-13T06:00:42;120715.88;;;-142.62;69.41
6427;BME280;3246;42.664;23.308;2022-09-13T06:03:09;120715.88;;;-142.62;69.44
6427;BME280;3246;42.664;23.308;2022-09-13T06:05:35;120715.88;;;-142.62;68.85
6427;BME280;3246;42.664;23.308;2022-09-13T06:08:03;120715.88;;;-142.62;69.20
6427;BME280;3246;42.664;23.308;2022-09-13T06:10:30;120715.88;;;-142.62;69.24
6427;BME280;3246;42.664;23.308;2022-09-13T06:12:57;120715.88;;;-142.62;69.35
6427;BME280;3246;42.664;23.308;2022-09-13T06:15:24;120715.88;;;-142.62;69.11
6427;BME280;3246;42.664;23.308;2022-09-13T06:17:51;120715.88;;;-142.62;68.79
6427;BME280;3246;42.664;23.308;2022-09-13T06:20:18;120715.88;;;-142.62;68.67
6427;BME280;3246;42.664;23.308;2022-09-13T06:22:46;120715.88;;;-142.62;69.43
6427;BME280;3246;42.664;23.308;2022-09-13T06:25:14;120715.88;;;-142.62;68.91
6427;BME280;3246;42.664;23.308;2022-09-13T06:27:41;120715.88;;;-142.62;68.84
6427;BME280;3246;42.664;23.308;2022-09-13T06:30:09;120715.88;;;-142.62;69.63
6427;BME280;3246;42.664;23.308;2022-09-13T06:32:37;120715.88;;;-142.62;68.51
6427;BME280;3246;42.664;23.308;2022-09-13T06:35:05;120715.88;;;-142.62;68.09
6427;BME280;3246;42.664;23.308;2022-09-13T06:37:31;120715.88;;;-142.62;68.66
6427;BME280;3246;42.664;23.308;2022-09-13T06:39:58;120715.88;;;-142.62;66.78
6427;BME280;3246;42.664;23.308;2022-09-13T06:42:26;120715.88;;;-142.62;67.27
6427;BME280;3246;42.664;23.308;2022-09-13T06:44:53;120715.88;;;-142.62;66.95
6427;BME280;3246;42.664;23.308;2022-09-13T06:47:20;120715.88;;;-142.62;67.33
6427;BME280;3246;42.664;23.308;2022-09-13T06:49:47;120715.88;;;-142.62;66.59
6427;BME280;3246;42.664;23.308;2022-09-13T06:52:14;120715.88;;;-142.62;66.56
6427;BME280;3246;42.664;23.308;2022-09-13T06:54:41;120715.88;;;-142.62;66.56
6427;BME280;3246;42.664;23.308;2022-09-13T06:57:08;120715.88;;;-142.62;66.60
6427;BME280;3246;42.664;23.308;2022-09-13T06:59:36;120715.88;;;-142.62;66.15
6427;BME280;3246;42.664;23.308;2022-09-13T07:02:03;120715.88;;;-142.62;66.56
6427;BME280;3246;42.664;23.308;2022-09-13T07:04:30;120715.88;;;-142.62;67.04
6427;BME280;3246;42.664;23.308;2022-09-13T07:06:57;120715.88;;;-142.62;66.35
6427;BME280;3246;42.664;23.308;2022-09-13T07:09:24;120715.88;;;-142.62;65.82
6427;BME280;3246;42.664;23.308;2022-09-13T07:11:53;120715.88;;;-142.62;65.85
6427;BME280;3246;42.664;23.308;2022-09-13T07:14:22;120715.88;;;-142.62;64.86
6427;BME280;3246;42.664;23.308;2022-09-13T07:16:51;120715.88;;;-142.62;65.43
6427;BME280;3246;42.664;23.308;2022-09-13T07:19:19;120715.88;;;-142.62;65.81
6427;BME280;3246;42.664;23.308;2022-09-13T07:21:47;120715.88;;;-142.62;66.17
6427;BME280;3246;42.664;23.308;2022-09-13T07:24:15;120715.88;;;-142.62;64.47
6427;BME280;3246;42.664;23.308;2022-09-13T07:26:42;120715.88;;;-142.62;64.07
6427;BME280;3246;42.664;23.308;2022-09-13T07:29:11;120715.88;;;-142.62;64.46
6427;BME280;3246;42.664;23.308;2022-09-13T07:31:40;120715.88;;;-142.62;63.48
6427;BME280;3246;42.664;23.308;2022-09-13T07:34:12;120715.88;;;-142.62;63.42
6427;BME280;3246;42.664;23.308;2022-09-13T07:36:40;120715.88;;;-142.62;62.79
6427;BME280;3246;42.664;23.308;2022-09-13T07:39:07;120715.88;;;-142.62;62.53
6427;BME280;3246;42.664;23.308;2022-09-13T07:41:34;120715.88;;;-142.62;61.59
6427;BME280;3246;42.664;23.308;2022-09-13T07:44:01;120715.88;;;-142.62;61.86
6427;BME280;3246;42.664;23.308;2022-09-13T07:46:30;120715.88;;;-142.62;61.41
6427;BME280;3246;42.664;23.308;2022-09-13T07:48:59;120715.88;;;-142.62;61.39
6427;BME280;3246;42.664;23.308;2022-09-13T07:51:29;120715.88;;;-142.62;60.44
6427;BME280;3246;42.664;23.308;2022-09-13T07:53:57;120715.88;;;-142.62;60.92
6427;BME280;3246;42.664;23.308;2022-09-13T07:56:25;120715.88;;;-142.62;59.93
6427;BME280;3246;42.664;23.308;2022-09-13T07:58:53;120715.88;;;-142.62;58.58
6427;BME280;3246;42.664;23.308;2022-09-13T08:01:21;120715.88;;;-142.62;59.33
6427;BME280;3246;42.664;23.308;2022-09-13T08:03:52;120715.88;;;-142.62;59.02
6427;BME280;3246;42.664;23.308;2022-09-13T08:06:19;120715.88;;;-142.62;58.58
6427;BME280;3246;42.664;23.308;2022-09-13T08:08:48;120715.88;;;-142.62;58.09
6427;BME280;3246;42.664;23.308;2022-09-13T08:11:18;120715.88;;;-142.62;57.45
6427;BME280;3246;42.664;23.308;2022-09-13T08:13:46;120715.88;;;-142.62;57.47
6427;BME280;3246;42.664;23.308;2022-09-13T08:16:14;120715.88;;;-142.62;57.46
6427;BME280;3246;42.664;23.308;2022-09-13T08:18:44;120715.88;;;-142.62;57.96
6427;BME280;3246;42.664;23.308;2022-09-13T08:21:11;120715.88;;;-142.62;56.84
6427;BME280;3246;42.664;23.308;2022-09-13T08:23:39;120715.88;;;-142.62;57.05
6427;BME280;3246;42.664;23.308;2022-09-13T08:26:08;120715.88;;;-142.62;55.85
6427;BME280;3246;42.664;23.308;2022-09-13T08:28:36;120715.88;;;-142.62;56.01
6427;BME280;3246;42.664;23.308;2022-09-13T08:31:05;120715.88;;;-142.62;55.52
6427;BME280;3246;42.664;23.308;2022-09-13T08:33:33;120715.88;;;-142.62;54.52
6427;BME280;3246;42.664;23.308;2022-09-13T08:36:00;120715.88;;;-142.62;55.20
6427;BME280;3246;42.664;23.308;2022-09-13T08:38:28;120715.88;;;-142.62;53.70
6427;BME280;3246;42.664;23.308;2022-09-13T08:40:56;120715.88;;;-142.62;54.96
6427;BME280;3246;42.664;23.308;2022-09-13T08:43:33;120715.88;;;-142.62;53.39
6427;BME280;3246;42.664;23.308;2022-09-13T08:46:10;120715.88;;;-142.62;53.52
6427;BME280;3246;42.664;23.308;2022-09-13T08:48:43;120715.88;;;-142.62;52.88
6427;BME280;3246;42.664;23.308;2022-09-13T08:51:22;120715.88;;;-142.62;53.46
6427;BME280;3246;42.664;23.308;2022-09-13T08:53:50;120715.88;;;-142.62;54.16
6427;BME280;3246;42.664;23.308;2022-09-13T08:56:19;120715.88;;;-142.62;52.72
6427;BME280;3246;42.664;23.308;2022-09-13T08:58:59;120715.88;;;-142.62;52.29
6427;BME280;3246;42.664;23.308;2022-09-13T09:01:37;120715.88;;;-142.62;51.55
6427;BME280;3246;42.664;23.308;2022-09-13T09:04:12;120715.88;;;-142.62;47.51
6427;BME280;3246;42.664;23.308;2022-09-13T09:06:41;120715.88;;;-142.62;49.67
6427;BME280;3246;42.664;23.308;2022-09-13T09:09:12;120715.88;;;-142.62;50.45
6427;BME280;3246;42.664;23.308;2022-09-13T09:11:43;120715.88;;;-142.62;50.92
6427;BME280;3246;42.664;23.308;2022-09-13T09:14:19;120715.88;;;-142.62;50.55
6427;BME280;3246;42.664;23.308;2022-09-13T09:16:52;120715.88;;;-142.62;51.27
6427;BME280;3246;42.664;23.308;2022-09-13T09:19:23;120715.88;;;-142.62;51.05
6427;BME280;3246;42.664;23.308;2022-09-13T09:21:52;120715.88;;;-142.62;49.31
6427;BME280;3246;42.664;23.308;2022-09-13T09:24:21;120715.88;;;-142.62;49.61
6427;BME280;3246;42.664;23.308;2022-09-13T09:26:49;120715.88;;;-142.62;49.87
6427;BME280;3246;42.664;23.308;2022-09-13T09:29:20;120715.88;;;-142.62;49.97
6427;BME280;3246;42.664;23.308;2022-09-13T09:31:58;120715.88;;;-142.62;49.90
6427;BME280;3246;42.664;23.308;2022-09-13T09:34:39;120715.88;;;-142.62;49.44
6427;BME280;3246;42.664;23.308;2022-09-13T09:37:15;120715.88;;;-142.62;49.38
6427;BME280;3246;42.664;23.308;2022-09-13T09:39:43;120715.88;;;-142.62;50.10
6427;BME280;3246;42.664;23.308;2022-09-13T09:42:12;120715.88;;;-142.62;50.08
6427;BME280;3246;42.664;23.308;2022-09-13T09:44:42;120715.88;;;-142.62;50.64
6427;BME280;3246;42.664;23.308;2022-09-13T09:47:13;120715.88;;;-142.62;50.37
6427;BME280;3246;42.664;23.308;2022-09-13T09:49:44;120715.88;;;-142.62;48.95
6427;BME280;3246;42.664;23.308;2022-09-13T09:52:31;120715.88;;;-142.62;49.29
6427;BME280;3246;42.664;23.308;2022-09-13T09:55:12;120715.88;;;-142.62;50.00
6427;BME280;3246;42.664;23.308;2022-09-13T09:57:51;120715.88;;;-142.62;50.41
6427;BME280;3246;42.664;23.308;2022-09-13T10:00:21;120715.88;;;-142.62;49.78
6427;BME280;3246;42.664;23.308;2022-09-13T10:02:52;120715.88;;;-142.62;50.40
6427;BME280;3246;42.664;23.308;2022-09-13T10:05:21;120715.88;;;-142.62;49.52
6427;BME280;3246;42.664;23.308;2022-09-13T10:07:53;120715.88;;;-142.62;50.32
6427;BME280;3246;42.664;23.308;2022-09-13T10:10:25;120715.88;;;-142.62;49.55
6427;BME280;3246;42.664;23.308;2022-09-13T10:12:54;120715.88;;;-142.62;48.88
6427;BME280;3246;42.664;23.308;2022-09-13T10:15:25;120715.88;;;-142.62;48.34
6427;BME280;3246;42.664;23.308;2022-09-13T10:18:02;120715.88;;;-142.62;48.12
6427;BME280;3246;42.664;23.308;2022-09-13T10:20:30;120715.88;;;-142.62;48.10
6427;BME280;3246;42.664;23.308;2022-09-13T10:23:24;120715.88;;;-142.62;48.35
6427;BME280;3246;42.664;23.308;2022-09-13T10:26:01;120715.88;;;-142.62;47.92
6427;BME280;3246;42.664;23.308;2022-09-13T10:28:33;120715.88;;;-142.62;48.25
6427;BME280;3246;42.664;23.308;2022-09-13T10:31:04;120715.88;;;-142.62;48.85
6427;BME280;3246;42.664;23.308;2022-09-13T10:33:36;120715.88;;;-142.62;46.23
6427;BME280;3246;42.664;23.308;2022-09-13T10:36:07;120715.88;;;-142.62;47.56
6427;BME280;3246;42.664;23.308;2022-09-13T10:38:39;120715.88;;;-142.62;48.49
6427;BME280;3246;42.664;23.308;2022-09-13T10:41:08;120715.88;;;-142.62;47.64
6427;BME280;3246;42.664;23.308;2022-09-13T10:43:37;120715.88;;;-142.62;47.71
6427;BME280;3246;42.664;23.308;2022-09-13T10:46:09;120715.88;;;-142.62;48.13
6427;BME280;3246;42.664;23.308;2022-09-13T10:48:46;120715.88;;;-142.62;47.90
6427;BME280;3246;42.664;23.308;2022-09-13T10:51:30;120715.88;;;-142.62;47.88
6427;BME280;3246;42.664;23.308;2022-09-13T10:54:16;120715.88;;;-142.62;47.75
6427;BME280;3246;42.664;23.308;2022-09-13T10:56:45;120715.88;;;-142.62;47.40
6427;BME280;3246;42.664;23.308;2022-09-13T10:59:19;120715.88;;;-142.62;47.64
6427;BME280;3246;42.664;23.308;2022-09-13T11:01:59;120715.88;;;-142.62;46.83
6427;BME280;3246;42.664;23.308;2022-09-13T11:07:54;120715.88;;;-142.62;45.90
6427;BME280;3246;42.664;23.308;2022-09-13T11:10:29;120715.88;;;-142.62;44.09
6427;BME280;3246;42.664;23.308;2022-09-13T11:13:04;120715.88;;;-142.62;44.97
6427;BME280;3246;42.664;23.308;2022-09-13T11:15:44;120715.88;;;-142.62;44.13
6427;BME280;3246;42.664;23.308;2022-09-13T11:21:29;120715.88;;;-142.62;42.64
6427;BME280;3246;42.664;23.308;2022-09-13T11:24:15;120715.88;;;-142.62;42.98
6427;BME280;3246;42.664;23.308;2022-09-13T11:26:55;120715.88;;;-142.62;43.13
6427;BME280;3246;42.664;23.308;2022-09-13T11:29:32;120715.88;;;-142.62;43.24
6427;BME280;3246;42.664;23.308;2022-09-13T11:32:13;120715.88;;;-142.62;42.35
6427;BME280;3246;42.664;23.308;2022-09-13T11:34:48;120715.88;;;-142.62;42.63
6427;BME280;3246;42.664;23.308;2022-09-13T11:37:39;120715.88;;;-142.62;42.96
6427;BME280;3246;42.664;23.308;2022-09-13T11:40:26;120715.88;;;-142.62;41.71
6427;BME280;3246;42.664;23.308;2022-09-13T11:43:04;120715.88;;;-142.62;42.79
6427;BME280;3246;42.664;23.308;2022-09-13T11:45:39;120715.88;;;-142.62;42.59
6427;BME280;3246;42.664;23.308;2022-09-13T11:51:16;120715.88;;;-142.62;42.71
6427;BME280;3246;42.664;23.308;2022-09-13T11:54:00;120715.88;;;-142.62;43.10
6427;BME280;3246;42.664;23.308;2022-09-13T11:56:34;120715.88;;;-142.62;42.85
6427;BME280;3246;42.664;23.308;2022-09-13T11:59:12;120715.88;;;-142.62;40.99
6427;BME280;3246;42.664;23.308;2022-09-13T12:01:46;120715.88;;;-142.62;41.95
6427;BME280;3246;42.664;23.308;2022-09-13T12:04:19;120715.88;;;-142.62;42.83
6427;BME280;3246;42.664;23.308;2022-09-13T12:06:49;120715.88;;;-142.62;42.60
6427;BME280;3246;42.664;23.308;2022-09-13T12:09:22;120715.88;;;-142.62;42.15
6427;BME280;3246;42.664;23.308;2022-09-13T12:11:53;120715.88;;;-142.62;41.59
6427;BME280;3246;42.664;23.308;2022-09-13T12:14:28;120715.88;;;-142.62;41.93
6427;BME280;3246;42.664;23.308;2022-09-13T12:16:58;120715.88;;;-142.62;41.17
6427;BME280;3246;42.664;23.308;2022-09-13T12:19:35;120715.88;;;-142.62;41.23
6427;BME280;3246;42.664;23.308;2022-09-13T12:22:07;120715.88;;;-142.62;41.42
6427;BME280;3246;42.664;23.308;2022-09-13T12:24:41;120715.88;;;-142.62;41.49
6427;BME280;3246;42.664;23.308;2022-09-13T12:27:12;120715.88;;;-142.62;41.12
6427;BME280;3246;42.664;23.308;2022-09-13T12:29:49;120715.88;;;-142.62;41.27
6427;BME280;3246;42.664;23.308;2022-09-13T12:32:17;120715.88;;;-142.62;41.68
6427;BME280;3246;42.664;23.308;2022-09-13T12:34:48;120715.88;;;-142.62;41.73
6427;BME280;3246;42.664;23.308;2022-09-13T12:37:36;120715.88;;;-142.62;41.54
6427;BME280;3246;42.664;23.308;2022-09-13T12:40:25;120715.88;;;-142.62;40.81
6427;BME280;3246;42.664;23.308;2022-09-13T12:43:17;120715.88;;;-142.62;40.11
6427;BME280;3246;42.664;23.308;2022-09-13T12:46:01;120715.88;;;-142.62;40.65
6427;BME280;3246;42.664;23.308;2022-09-13T12:48:51;120715.88;;;-142.62;40.03
6427;BME280;3246;42.664;23.308;2022-09-13T12:51:31;120715.88;;;-142.62;40.60
6427;BME280;3246;42.664;23.308;2022-09-13T12:54:26;120715.88;;;-142.62;40.88
6427;BME280;3246;42.664;23.308;2022-09-13T12:57:14;120715.88;;;-142.62;39.92
6427;BME280;3246;42.664;23.308;2022-09-13T13:00:08;120715.88;;;-142.62;39.45
6427;BME280;3246;42.664;23.308;2022-09-13T13:02:39;120715.88;;;-142.62;39.71
6427;BME280;3246;42.664;23.308;2022-09-13T13:05:20;120715.88;;;-142.62;40.37
6427;BME280;3246;42.664;23.308;2022-09-13T13:07:52;120715.88;;;-142.62;41.71
6427;BME280;3246;42.664;23.308;2022-09-13T13:10:25;120715.88;;;-142.62;41.55
6427;BME280;3246;42.664;23.308;2022-09-13T13:13:08;120715.88;;;-142.62;41.58
6427;BME280;3246;42.664;23.308;2022-09-13T13:16:03;120715.88;;;-142.62;41.58
6427;BME280;3246;42.664;23.308;2022-09-13T13:18:42;120715.88;;;-142.62;42.28
6427;BME280;3246;42.664;23.308;2022-09-13T13:21:31;120715.88;;;-142.62;41.03